sensor_id;sensor_type;location;lat;lon;timestamp;temperature;humidity
59469;DHT22;45277;52.768;18.262;2023-03-07T00:00:24;-4.30;99.90
59469;DHT22;45277;52.768;18.262;2023-03-07T00:02:16;-4.30;99.90
59469;DHT22;45277;52.768;18.262;2023-03-07T00:03:48;-4.30;99.90
59469;DHT22;45277;52.768;18.262;2023-03-07T00:05:19;-4.20;99.90
59469;DHT22;45277;52.768;18.262;2023-03-07T00:07:01;-4.30;99.90
59469;DHT22;45277;52.768;18.262;2023-03-07T00:08:33;-4.30;99.90
59469;DHT22;45277;52.768;18.262;2023-03-07T00:10:05;-4.40;99.90
59469;DHT22;45277;52.768;18.262;2023-03-07T00:11:37;-4.40;99.90
59469;DHT22;45277;52.768;18.262;2023-03-07T00:13:08;-4.30;99.90
59469;DHT22;45277;52.768;18.262;2023-03-07T00:14:40;-4.30;99.90
59469;DHT22;45277;52.768;18.262;2023-03-07T00:16:16;-4.30;99.90
59469;DHT22;45277;52.768;18.262;2023-03-07T00:17:48;-4.30;99.90
59469;DHT22;45277;52.768;18.262;2023-03-07T00:19:20;-4.20;99.90
59469;DHT22;45277;52.768;18.262;2023-03-07T00:20:58;-4.10;99.90
59469;DHT22;45277;52.768;18.262;2023-03-07T00:22:30;-4.00;99.90
59469;DHT22;45277;52.768;18.262;2023-03-07T00:24:02;-4.00;99.90
59469;DHT22;45277;52.768;18.262;2023-03-07T00:25:34;-3.90;99.90
59469;DHT22;45277;52.768;18.262;2023-03-07T00:27:06;-3.80;99.90
59469;DHT22;45277;52.768;18.262;2023-03-07T00:28:38;-3.70;99.90
59469;DHT22;45277;52.768;18.262;2023-03-07T00:30:10;-3.70;99.90
59469;DHT22;45277;52.768;18.262;2023-03-07T00:31:45;-3.70;99.90
59469;DHT22;45277;52.768;18.262;2023-03-07T00:33:16;-3.80;99.90
59469;DHT22;45277;52.768;18.262;2023-03-07T00:34:47;-3.80;99.90
59469;DHT22;45277;52.768;18.262;2023-03-07T00:36:21;-3.80;99.90
59469;DHT22;45277;52.768;18.262;2023-03-07T00:37:52;-3.90;99.90
59469;DHT22;45277;52.768;18.262;2023-03-07T00:39:24;-3.90;99.90
59469;DHT22;45277;52.768;18.262;2023-03-07T00:41:01;-4.00;99.90
59469;DHT22;45277;52.768;18.262;2023-03-07T00:42:32;-3.90;99.90
59469;DHT22;45277;52.768;18.262;2023-03-07T00:44:03;-3.90;99.90
59469;DHT22;45277;52.768;18.262;2023-03-07T00:45:35;-3.80;99.90
59469;DHT22;45277;52.768;18.262;2023-03-07T00:47:07;-3.70;99.90
59469;DHT22;45277;52.768;18.262;2023-03-07T00:48:39;-3.60;99.90
59469;DHT22;45277;52.768;18.262;2023-03-07T00:50:11;-3.70;99.90
59469;DHT22;45277;52.768;18.262;2023-03-07T00:51:42;-3.70;99.90
59469;DHT22;45277;52.768;18.262;2023-03-07T00:53:13;-3.80;99.90
59469;DHT22;45277;52.768;18.262;2023-03-07T00:54:45;-3.90;99.90
59469;DHT22;45277;52.768;18.262;2023-03-07T00:56:21;-4.00;99.90
59469;DHT22;45277;52.768;18.262;2023-03-07T00:57:53;-4.10;99.90
59469;DHT22;45277;52.768;18.262;2023-03-07T00:59:24;-4.10;99.90
59469;DHT22;45277;52.768;18.262;2023-03-07T01:00:56;-4.20;99.90
59469;DHT22;45277;52.768;18.262;2023-03-07T01:02:27;-4.30;99.90
59469;DHT22;45277;52.768;18.262;2023-03-07T01:03:59;-4.30;99.90
59469;DHT22;45277;52.768;18.262;2023-03-07T01:05:30;-4.40;99.90
59469;DHT22;45277;52.768;18.262;2023-03-07T01:07:02;-4.50;99.90
59469;DHT22;45277;52.768;18.262;2023-03-07T01:08:34;-4.50;99.90
59469;DHT22;45277;52.768;18.262;2023-03-07T01:10:05;-4.50;99.90
59469;DHT22;45277;52.768;18.262;2023-03-07T01:11:37;-4.60;99.90
59469;DHT22;45277;52.768;18.262;2023-03-07T01:13:11;-4.70;99.90
59469;DHT22;45277;52.768;18.262;2023-03-07T01:14:42;-4.70;99.90
59469;DHT22;45277;52.768;18.262;2023-03-07T01:16:23;-4.70;99.90
59469;DHT22;45277;52.768;18.262;2023-03-07T01:17:55;-4.80;99.90
59469;DHT22;45277;52.768;18.262;2023-03-07T01:19:26;-4.90;99.90
59469;DHT22;45277;52.768;18.262;2023-03-07T01:20:57;-4.90;99.90
59469;DHT22;45277;52.768;18.262;2023-03-07T01:22:30;-4.90;99.90
59469;DHT22;45277;52.768;18.262;2023-03-07T01:24:01;-4.90;99.90
59469;DHT22;45277;52.768;18.262;2023-03-07T01:25:40;-5.00;99.90
59469;DHT22;45277;52.768;18.262;2023-03-07T01:27:12;-5.10;99.90
59469;DHT22;45277;52.768;18.262;2023-03-07T01:28:44;-5.10;99.90
59469;DHT22;45277;52.768;18.262;2023-03-07T01:30:15;-5.00;99.90
59469;DHT22;45277;52.768;18.262;2023-03-07T01:31:47;-5.00;99.90
59469;DHT22;45277;52.768;18.262;2023-03-07T01:33:19;-5.00;99.90
59469;DHT22;45277;52.768;18.262;2023-03-07T01:34:50;-5.00;99.90
59469;DHT22;45277;52.768;18.262;2023-03-07T01:36:24;-4.90;99.90
59469;DHT22;45277;52.768;18.262;2023-03-07T01:37:59;-4.90;99.90
59469;DHT22;45277;52.768;18.262;2023-03-07T01:39:31;-4.90;99.90
59469;DHT22;45277;52.768;18.262;2023-03-07T01:41:03;-4.90;99.90
59469;DHT22;45277;52.768;18.262;2023-03-07T01:42:34;-4.90;99.90
59469;DHT22;45277;52.768;18.262;2023-03-07T01:44:19;-4.90;99.90
59469;DHT22;45277;52.768;18.262;2023-03-07T01:47:47;-5.10;99.90
59469;DHT22;45277;52.768;18.262;2023-03-07T01:49:34;-5.10;99.90
59469;DHT22;45277;52.768;18.262;2023-03-07T01:51:07;-5.20;99.90
59469;DHT22;45277;52.768;18.262;2023-03-07T01:52:46;-5.20;99.90
59469;DHT22;45277;52.768;18.262;2023-03-07T01:54:19;-5.20;99.90
59469;DHT22;45277;52.768;18.262;2023-03-07T01:55:52;-5.20;99.90
59469;DHT22;45277;52.768;18.262;2023-03-07T01:57:29;-5.20;99.90
59469;DHT22;45277;52.768;18.262;2023-03-07T01:59:03;-5.20;99.90
59469;DHT22;45277;52.768;18.262;2023-03-07T02:03:21;-5.30;99.90
59469;DHT22;45277;52.768;18.262;2023-03-07T02:05:24;-5.30;99.90
59469;DHT22;45277;52.768;18.262;2023-03-07T02:06:59;-5.30;99.90
59469;DHT22;45277;52.768;18.262;2023-03-07T02:08:32;-5.30;99.90
59469;DHT22;45277;52.768;18.262;2023-03-07T02:10:04;-5.40;99.90
59469;DHT22;45277;52.768;18.262;2023-03-07T02:11:41;-5.30;99.90
59469;DHT22;45277;52.768;18.262;2023-03-07T02:13:13;-5.30;99.90
59469;DHT22;45277;52.768;18.262;2023-03-07T02:14:48;-5.40;99.90
59469;DHT22;45277;52.768;18.262;2023-03-07T02:16:20;-5.40;99.90
59469;DHT22;45277;52.768;18.262;2023-03-07T02:17:52;-5.40;99.90
59469;DHT22;45277;52.768;18.262;2023-03-07T02:19:35;-5.40;99.90
59469;DHT22;45277;52.768;18.262;2023-03-07T02:21:22;-5.40;99.90
59469;DHT22;45277;52.768;18.262;2023-03-07T02:22:55;-5.40;99.90
59469;DHT22;45277;52.768;18.262;2023-03-07T02:27:55;-5.40;99.90
59469;DHT22;45277;52.768;18.262;2023-03-07T02:29:28;-5.50;99.90
59469;DHT22;45277;52.768;18.262;2023-03-07T02:31:03;-5.50;99.90
59469;DHT22;45277;52.768;18.262;2023-03-07T02:32:35;-5.50;99.90
59469;DHT22;45277;52.768;18.262;2023-03-07T02:34:36;-5.40;99.90
59469;DHT22;45277;52.768;18.262;2023-03-07T02:36:13;-5.50;99.90
59469;DHT22;45277;52.768;18.262;2023-03-07T02:37:48;-5.40;99.90
59469;DHT22;45277;52.768;18.262;2023-03-07T02:39:22;-5.40;99.90
59469;DHT22;45277;52.768;18.262;2023-03-07T02:40:56;-5.50;99.90
59469;DHT22;45277;52.768;18.262;2023-03-07T02:42:28;-5.40;99.90
59469;DHT22;45277;52.768;18.262;2023-03-07T02:44:01;-5.50;99.90
59469;DHT22;45277;52.768;18.262;2023-03-07T02:45:32;-5.40;99.90
59469;DHT22;45277;52.768;18.262;2023-03-07T02:47:03;-5.40;99.90
59469;DHT22;45277;52.768;18.262;2023-03-07T02:48:39;-5.40;99.90
59469;DHT22;45277;52.768;18.262;2023-03-07T02:50:12;-5.40;99.90
59469;DHT22;45277;52.768;18.262;2023-03-07T02:51:43;-5.40;99.90
59469;DHT22;45277;52.768;18.262;2023-03-07T02:53:15;-5.50;99.90
59469;DHT22;45277;52.768;18.262;2023-03-07T02:54:47;-5.50;99.90
59469;DHT22;45277;52.768;18.262;2023-03-07T02:56:18;-5.50;99.90
59469;DHT22;45277;52.768;18.262;2023-03-07T02:57:49;-5.50;99.90
59469;DHT22;45277;52.768;18.262;2023-03-07T02:59:21;-5.50;99.90
59469;DHT22;45277;52.768;18.262;2023-03-07T03:00:52;-5.60;99.90
59469;DHT22;45277;52.768;18.262;2023-03-07T03:02:24;-5.60;99.90
59469;DHT22;45277;52.768;18.262;2023-03-07T03:03:55;-5.60;99.90
59469;DHT22;45277;52.768;18.262;2023-03-07T03:05:27;-5.50;99.90
59469;DHT22;45277;52.768;18.262;2023-03-07T03:06:58;-5.50;99.90
59469;DHT22;45277;52.768;18.262;2023-03-07T03:08:30;-5.50;99.90
59469;DHT22;45277;52.768;18.262;2023-03-07T03:10:02;-5.50;99.90
59469;DHT22;45277;52.768;18.262;2023-03-07T03:11:34;-5.50;99.90
59469;DHT22;45277;52.768;18.262;2023-03-07T03:13:05;-5.50;99.90
59469;DHT22;45277;52.768;18.262;2023-03-07T03:14:37;-5.50;99.90
59469;DHT22;45277;52.768;18.262;2023-03-07T03:16:09;-5.50;99.90
59469;DHT22;45277;52.768;18.262;2023-03-07T03:17:40;-5.50;99.90
59469;DHT22;45277;52.768;18.262;2023-03-07T03:19:12;-5.50;99.90
59469;DHT22;45277;52.768;18.262;2023-03-07T03:20:43;-5.40;99.90
59469;DHT22;45277;52.768;18.262;2023-03-07T03:22:15;-5.50;99.90
59469;DHT22;45277;52.768;18.262;2023-03-07T03:23:46;-5.40;99.90
59469;DHT22;45277;52.768;18.262;2023-03-07T03:25:18;-5.40;99.90
59469;DHT22;45277;52.768;18.262;2023-03-07T03:26:56;-5.40;99.90
59469;DHT22;45277;52.768;18.262;2023-03-07T03:28:28;-5.40;99.90
59469;DHT22;45277;52.768;18.262;2023-03-07T03:29:59;-5.40;99.90
59469;DHT22;45277;52.768;18.262;2023-03-07T03:31:32;-5.40;99.90
59469;DHT22;45277;52.768;18.262;2023-03-07T03:33:03;-5.30;99.90
59469;DHT22;45277;52.768;18.262;2023-03-07T03:34:35;-5.40;99.90
59469;DHT22;45277;52.768;18.262;2023-03-07T03:36:13;-5.40;99.90
59469;DHT22;45277;52.768;18.262;2023-03-07T03:37:45;-5.30;99.90
59469;DHT22;45277;52.768;18.262;2023-03-07T03:39:17;-5.40;99.90
59469;DHT22;45277;52.768;18.262;2023-03-07T03:40:48;-5.30;99.90
59469;DHT22;45277;52.768;18.262;2023-03-07T03:42:19;-5.30;99.90
59469;DHT22;45277;52.768;18.262;2023-03-07T03:43:51;-5.30;99.90
59469;DHT22;45277;52.768;18.262;2023-03-07T03:45:22;-5.30;99.90
59469;DHT22;45277;52.768;18.262;2023-03-07T03:46:54;-5.20;99.90
59469;DHT22;45277;52.768;18.262;2023-03-07T03:48:26;-5.20;99.90
59469;DHT22;45277;52.768;18.262;2023-03-07T03:49:58;-5.20;99.90
59469;DHT22;45277;52.768;18.262;2023-03-07T03:51:29;-5.20;99.90
59469;DHT22;45277;52.768;18.262;2023-03-07T03:53:01;-5.20;99.90
59469;DHT22;45277;52.768;18.262;2023-03-07T03:54:33;-5.20;99.90
59469;DHT22;45277;52.768;18.262;2023-03-07T03:56:13;-5.10;99.90
59469;DHT22;45277;52.768;18.262;2023-03-07T03:57:46;-5.10;99.90
59469;DHT22;45277;52.768;18.262;2023-03-07T03:59:17;-5.00;99.90
59469;DHT22;45277;52.768;18.262;2023-03-07T04:00:48;-4.90;99.90
59469;DHT22;45277;52.768;18.262;2023-03-07T04:02:20;-4.90;99.90
59469;DHT22;45277;52.768;18.262;2023-03-07T04:03:53;-4.90;99.90
59469;DHT22;45277;52.768;18.262;2023-03-07T04:05:25;-4.80;99.90
59469;DHT22;45277;52.768;18.262;2023-03-07T04:06:56;-4.80;99.90
59469;DHT22;45277;52.768;18.262;2023-03-07T04:08:28;-4.80;99.90
59469;DHT22;45277;52.768;18.262;2023-03-07T04:09:59;-4.70;99.90
59469;DHT22;45277;52.768;18.262;2023-03-07T04:11:31;-4.70;99.90
59469;DHT22;45277;52.768;18.262;2023-03-07T04:13:03;-4.70;99.90
59469;DHT22;45277;52.768;18.262;2023-03-07T04:14:34;-4.60;99.90
59469;DHT22;45277;52.768;18.262;2023-03-07T04:16:06;-4.60;99.90
59469;DHT22;45277;52.768;18.262;2023-03-07T04:17:37;-4.60;99.90
59469;DHT22;45277;52.768;18.262;2023-03-07T04:19:11;-4.50;99.90
59469;DHT22;45277;52.768;18.262;2023-03-07T04:20:43;-4.50;99.90
59469;DHT22;45277;52.768;18.262;2023-03-07T04:22:15;-4.50;99.90
59469;DHT22;45277;52.768;18.262;2023-03-07T04:23:46;-4.40;99.90
59469;DHT22;45277;52.768;18.262;2023-03-07T04:25:19;-4.40;99.90
59469;DHT22;45277;52.768;18.262;2023-03-07T04:26:51;-4.40;99.90
59469;DHT22;45277;52.768;18.262;2023-03-07T04:28:24;-4.40;99.90
59469;DHT22;45277;52.768;18.262;2023-03-07T04:29:57;-4.30;99.90
59469;DHT22;45277;52.768;18.262;2023-03-07T04:31:28;-4.30;99.90
59469;DHT22;45277;52.768;18.262;2023-03-07T04:33:00;-4.30;99.90
59469;DHT22;45277;52.768;18.262;2023-03-07T04:34:32;-4.20;99.90
59469;DHT22;45277;52.768;18.262;2023-03-07T04:36:03;-4.10;99.90
59469;DHT22;45277;52.768;18.262;2023-03-07T04:37:34;-4.10;99.90
59469;DHT22;45277;52.768;18.262;2023-03-07T04:39:06;-4.10;99.90
59469;DHT22;45277;52.768;18.262;2023-03-07T04:40:38;-4.00;99.90
59469;DHT22;45277;52.768;18.262;2023-03-07T04:42:09;-3.90;99.90
59469;DHT22;45277;52.768;18.262;2023-03-07T04:43:41;-3.90;99.90
59469;DHT22;45277;52.768;18.262;2023-03-07T04:45:13;-3.80;99.90
59469;DHT22;45277;52.768;18.262;2023-03-07T04:46:44;-3.80;99.90
59469;DHT22;45277;52.768;18.262;2023-03-07T04:48:16;-3.80;99.90
59469;DHT22;45277;52.768;18.262;2023-03-07T04:49:47;-3.70;99.90
59469;DHT22;45277;52.768;18.262;2023-03-07T04:51:19;-3.60;99.90
59469;DHT22;45277;52.768;18.262;2023-03-07T04:52:50;-3.50;99.90
59469;DHT22;45277;52.768;18.262;2023-03-07T04:54:22;-3.50;99.90
59469;DHT22;45277;52.768;18.262;2023-03-07T04:55:57;-3.40;99.90
59469;DHT22;45277;52.768;18.262;2023-03-07T04:57:29;-3.30;99.90
59469;DHT22;45277;52.768;18.262;2023-03-07T04:59:00;-3.20;99.90
59469;DHT22;45277;52.768;18.262;2023-03-07T05:00:32;-3.20;99.90
59469;DHT22;45277;52.768;18.262;2023-03-07T05:02:06;-3.10;99.90
59469;DHT22;45277;52.768;18.262;2023-03-07T05:03:37;-3.00;99.90
59469;DHT22;45277;52.768;18.262;2023-03-07T05:05:09;-3.00;99.90
59469;DHT22;45277;52.768;18.262;2023-03-07T05:06:41;-2.90;99.90
59469;DHT22;45277;52.768;18.262;2023-03-07T05:08:12;-2.90;99.90
59469;DHT22;45277;52.768;18.262;2023-03-07T05:09:43;-2.90;99.90
59469;DHT22;45277;52.768;18.262;2023-03-07T05:11:15;-2.90;99.90
59469;DHT22;45277;52.768;18.262;2023-03-07T05:12:46;-2.90;99.90
59469;DHT22;45277;52.768;18.262;2023-03-07T05:14:18;-2.80;99.90
59469;DHT22;45277;52.768;18.262;2023-03-07T05:15:54;-2.80;99.90
59469;DHT22;45277;52.768;18.262;2023-03-07T05:17:25;-2.90;99.90
59469;DHT22;45277;52.768;18.262;2023-03-07T05:18:57;-2.90;99.90
59469;DHT22;45277;52.768;18.262;2023-03-07T05:20:29;-2.90;99.90
59469;DHT22;45277;52.768;18.262;2023-03-07T05:22:00;-2.90;99.90
59469;DHT22;45277;52.768;18.262;2023-03-07T05:23:32;-2.90;99.90
59469;DHT22;45277;52.768;18.262;2023-03-07T05:25:05;-2.90;99.90
59469;DHT22;45277;52.768;18.262;2023-03-07T05:26:36;-2.90;99.90
59469;DHT22;45277;52.768;18.262;2023-03-07T05:28:07;-3.00;99.90
59469;DHT22;45277;52.768;18.262;2023-03-07T05:29:39;-3.00;99.90
59469;DHT22;45277;52.768;18.262;2023-03-07T05:31:10;-3.00;99.90
59469;DHT22;45277;52.768;18.262;2023-03-07T05:32:42;-3.00;99.90
59469;DHT22;45277;52.768;18.262;2023-03-07T05:34:14;-3.00;99.90
59469;DHT22;45277;52.768;18.262;2023-03-07T05:35:46;-3.10;99.90
59469;DHT22;45277;52.768;18.262;2023-03-07T05:37:18;-3.10;99.90
59469;DHT22;45277;52.768;18.262;2023-03-07T05:38:49;-3.00;99.90
59469;DHT22;45277;52.768;18.262;2023-03-07T05:40:23;-3.10;99.90
59469;DHT22;45277;52.768;18.262;2023-03-07T05:41:54;-3.10;99.90
59469;DHT22;45277;52.768;18.262;2023-03-07T05:43:26;-3.00;99.90
59469;DHT22;45277;52.768;18.262;2023-03-07T05:44:58;-3.00;99.90
59469;DHT22;45277;52.768;18.262;2023-03-07T05:46:29;-3.00;99.90
59469;DHT22;45277;52.768;18.262;2023-03-07T05:48:01;-3.00;99.90
59469;DHT22;45277;52.768;18.262;2023-03-07T05:49:33;-3.00;99.90
59469;DHT22;45277;52.768;18.262;2023-03-07T05:51:05;-3.00;99.90
59469;DHT22;45277;52.768;18.262;2023-03-07T05:52:36;-3.00;99.90
59469;DHT22;45277;52.768;18.262;2023-03-07T05:54:08;-3.00;99.90
59469;DHT22;45277;52.768;18.262;2023-03-07T05:55:39;-2.90;99.90
59469;DHT22;45277;52.768;18.262;2023-03-07T05:57:11;-2.90;99.90
59469;DHT22;45277;52.768;18.262;2023-03-07T05:58:43;-2.90;99.90
59469;DHT22;45277;52.768;18.262;2023-03-07T06:00:15;-2.90;99.90
59469;DHT22;45277;52.768;18.262;2023-03-07T06:01:46;-2.90;99.90
59469;DHT22;45277;52.768;18.262;2023-03-07T06:03:18;-2.90;99.90
59469;DHT22;45277;52.768;18.262;2023-03-07T06:04:49;-2.80;99.90
59469;DHT22;45277;52.768;18.262;2023-03-07T06:06:21;-2.80;99.90
59469;DHT22;45277;52.768;18.262;2023-03-07T06:07:52;-2.70;99.90
59469;DHT22;45277;52.768;18.262;2023-03-07T06:09:24;-2.80;99.90
59469;DHT22;45277;52.768;18.262;2023-03-07T06:10:56;-2.70;99.90
59469;DHT22;45277;52.768;18.262;2023-03-07T06:12:27;-2.70;99.90
59469;DHT22;45277;52.768;18.262;2023-03-07T06:13:59;-2.70;99.90
59469;DHT22;45277;52.768;18.262;2023-03-07T06:15:30;-2.70;99.90
59469;DHT22;45277;52.768;18.262;2023-03-07T06:17:03;-2.70;99.90
59469;DHT22;45277;52.768;18.262;2023-03-07T06:18:35;-2.70;99.90
59469;DHT22;45277;52.768;18.262;2023-03-07T06:20:07;-2.70;99.90
59469;DHT22;45277;52.768;18.262;2023-03-07T06:21:39;-2.70;99.90
59469;DHT22;45277;52.768;18.262;2023-03-07T06:23:10;-2.60;99.90
59469;DHT22;45277;52.768;18.262;2023-03-07T06:24:41;-2.60;99.90
59469;DHT22;45277;52.768;18.262;2023-03-07T06:26:14;-2.60;99.90
59469;DHT22;45277;52.768;18.262;2023-03-07T06:27:45;-2.50;99.90
59469;DHT22;45277;52.768;18.262;2023-03-07T06:29:17;-2.50;99.90
59469;DHT22;45277;52.768;18.262;2023-03-07T06:30:49;-2.50;99.90
59469;DHT22;45277;52.768;18.262;2023-03-07T06:32:20;-2.40;99.90
59469;DHT22;45277;52.768;18.262;2023-03-07T06:33:52;-2.50;99.90
59469;DHT22;45277;52.768;18.262;2023-03-07T06:35:24;-2.50;99.90
59469;DHT22;45277;52.768;18.262;2023-03-07T06:36:55;-2.50;99.90
59469;DHT22;45277;52.768;18.262;2023-03-07T06:38:27;-2.60;99.90
59469;DHT22;45277;52.768;18.262;2023-03-07T06:39:58;-2.60;99.90
59469;DHT22;45277;52.768;18.262;2023-03-07T06:41:30;-2.60;99.90
59469;DHT22;45277;52.768;18.262;2023-03-07T06:43:02;-2.60;99.90
59469;DHT22;45277;52.768;18.262;2023-03-07T06:44:34;-2.60;99.90
59469;DHT22;45277;52.768;18.262;2023-03-07T06:46:05;-2.60;99.90
59469;DHT22;45277;52.768;18.262;2023-03-07T06:47:37;-2.50;99.90
59469;DHT22;45277;52.768;18.262;2023-03-07T06:49:12;-2.50;99.90
59469;DHT22;45277;52.768;18.262;2023-03-07T06:50:44;-2.50;99.90
59469;DHT22;45277;52.768;18.262;2023-03-07T06:52:15;-2.50;99.90
59469;DHT22;45277;52.768;18.262;2023-03-07T06:53:47;-2.40;99.90
59469;DHT22;45277;52.768;18.262;2023-03-07T06:55:19;-2.30;99.90
59469;DHT22;45277;52.768;18.262;2023-03-07T06:56:50;-2.30;99.90
59469;DHT22;45277;52.768;18.262;2023-03-07T06:58:22;-2.30;99.90
59469;DHT22;45277;52.768;18.262;2023-03-07T06:59:54;-2.20;99.90
59469;DHT22;45277;52.768;18.262;2023-03-07T07:01:25;-2.20;99.90
59469;DHT22;45277;52.768;18.262;2023-03-07T07:02:56;-2.10;99.90
59469;DHT22;45277;52.768;18.262;2023-03-07T07:04:28;-2.10;99.90
59469;DHT22;45277;52.768;18.262;2023-03-07T07:05:59;-2.10;99.90
59469;DHT22;45277;52.768;18.262;2023-03-07T07:07:33;-2.10;99.90
59469;DHT22;45277;52.768;18.262;2023-03-07T07:09:04;-2.10;99.90
59469;DHT22;45277;52.768;18.262;2023-03-07T07:10:36;-2.00;99.90
59469;DHT22;45277;52.768;18.262;2023-03-07T07:12:08;-2.00;99.90
59469;DHT22;45277;52.768;18.262;2023-03-07T07:13:39;-2.00;99.90
59469;DHT22;45277;52.768;18.262;2023-03-07T07:15:11;-2.00;99.90
59469;DHT22;45277;52.768;18.262;2023-03-07T07:16:43;-2.00;99.90
59469;DHT22;45277;52.768;18.262;2023-03-07T07:18:14;-2.00;99.90
59469;DHT22;45277;52.768;18.262;2023-03-07T07:19:46;-2.00;99.90
59469;DHT22;45277;52.768;18.262;2023-03-07T07:21:18;-1.90;99.90
59469;DHT22;45277;52.768;18.262;2023-03-07T07:22:50;-1.90;99.90
59469;DHT22;45277;52.768;18.262;2023-03-07T07:24:21;-1.90;99.90
59469;DHT22;45277;52.768;18.262;2023-03-07T07:25:54;-1.80;99.90
59469;DHT22;45277;52.768;18.262;2023-03-07T07:27:25;-1.80;99.90
59469;DHT22;45277;52.768;18.262;2023-03-07T07:28:58;-1.80;99.90
59469;DHT22;45277;52.768;18.262;2023-03-07T07:30:30;-1.70;99.90
59469;DHT22;45277;52.768;18.262;2023-03-07T07:32:02;-1.60;99.90
59469;DHT22;45277;52.768;18.262;2023-03-07T07:33:34;-1.70;99.90
59469;DHT22;45277;52.768;18.262;2023-03-07T07:35:06;-1.70;99.90
59469;DHT22;45277;52.768;18.262;2023-03-07T07:36:38;-1.60;99.90
59469;DHT22;45277;52.768;18.262;2023-03-07T07:38:10;-1.60;99.90
59469;DHT22;45277;52.768;18.262;2023-03-07T07:39:41;-1.50;99.90
59469;DHT22;45277;52.768;18.262;2023-03-07T07:41:14;-1.50;99.90
59469;DHT22;45277;52.768;18.262;2023-03-07T07:42:49;-1.50;99.90
59469;DHT22;45277;52.768;18.262;2023-03-07T07:44:27;-1.30;99.90
59469;DHT22;45277;52.768;18.262;2023-03-07T07:45:59;-1.30;99.90
59469;DHT22;45277;52.768;18.262;2023-03-07T07:47:32;-1.30;99.90
59469;DHT22;45277;52.768;18.262;2023-03-07T07:49:04;-1.20;99.90
59469;DHT22;45277;52.768;18.262;2023-03-07T07:50:35;-1.20;99.90
59469;DHT22;45277;52.768;18.262;2023-03-07T07:52:07;-1.20;99.90
59469;DHT22;45277;52.768;18.262;2023-03-07T07:53:38;-1.10;99.90
59469;DHT22;45277;52.768;18.262;2023-03-07T07:55:10;-1.00;99.90
59469;DHT22;45277;52.768;18.262;2023-03-07T07:56:44;-1.00;99.90
59469;DHT22;45277;52.768;18.262;2023-03-07T07:58:17;-1.00;99.90
59469;DHT22;45277;52.768;18.262;2023-03-07T07:59:48;-1.10;99.90
59469;DHT22;45277;52.768;18.262;2023-03-07T08:01:22;-1.00;99.90
59469;DHT22;45277;52.768;18.262;2023-03-07T08:02:54;-1.00;99.90
59469;DHT22;45277;52.768;18.262;2023-03-07T08:04:26;-0.90;99.90
59469;DHT22;45277;52.768;18.262;2023-03-07T08:05:58;-0.80;99.90
59469;DHT22;45277;52.768;18.262;2023-03-07T08:07:29;-0.80;99.90
59469;DHT22;45277;52.768;18.262;2023-03-07T08:09:01;-0.80;99.90
59469;DHT22;45277;52.768;18.262;2023-03-07T08:10:33;-0.90;99.90
59469;DHT22;45277;52.768;18.262;2023-03-07T08:12:07;-0.80;99.90
59469;DHT22;45277;52.768;18.262;2023-03-07T08:13:41;-0.70;99.90
59469;DHT22;45277;52.768;18.262;2023-03-07T08:15:13;-0.60;99.90
59469;DHT22;45277;52.768;18.262;2023-03-07T08:16:47;-0.50;99.90
59469;DHT22;45277;52.768;18.262;2023-03-07T08:18:18;-0.60;99.90
59469;DHT22;45277;52.768;18.262;2023-03-07T08:19:50;-0.50;99.90
59469;DHT22;45277;52.768;18.262;2023-03-07T08:21:23;-0.50;99.90
59469;DHT22;45277;52.768;18.262;2023-03-07T08:22:55;-0.30;99.90
59469;DHT22;45277;52.768;18.262;2023-03-07T08:24:26;-0.30;99.90
59469;DHT22;45277;52.768;18.262;2023-03-07T08:26:06;-0.30;99.90
59469;DHT22;45277;52.768;18.262;2023-03-07T08:27:38;-0.20;99.90
59469;DHT22;45277;52.768;18.262;2023-03-07T08:29:11;-0.10;99.90
59469;DHT22;45277;52.768;18.262;2023-03-07T08:30:43;0.00;99.90
59469;DHT22;45277;52.768;18.262;2023-03-07T08:32:15;-0.10;99.90
59469;DHT22;45277;52.768;18.262;2023-03-07T08:33:46;0.00;99.90
59469;DHT22;45277;52.768;18.262;2023-03-07T08:35:18;0.00;99.90
59469;DHT22;45277;52.768;18.262;2023-03-07T08:36:50;0.10;99.90
59469;DHT22;45277;52.768;18.262;2023-03-07T08:38:22;0.10;99.90
59469;DHT22;45277;52.768;18.262;2023-03-07T08:39:54;0.20;99.90
59469;DHT22;45277;52.768;18.262;2023-03-07T08:41:25;0.30;99.90
59469;DHT22;45277;52.768;18.262;2023-03-07T08:43:00;0.30;99.90
59469;DHT22;45277;52.768;18.262;2023-03-07T08:44:32;0.30;99.90
59469;DHT22;45277;52.768;18.262;2023-03-07T08:46:03;0.30;99.90
59469;DHT22;45277;52.768;18.262;2023-03-07T08:47:35;0.40;99.90
59469;DHT22;45277;52.768;18.262;2023-03-07T08:49:07;0.50;99.90
59469;DHT22;45277;52.768;18.262;2023-03-07T08:50:38;0.50;99.90
59469;DHT22;45277;52.768;18.262;2023-03-07T08:52:10;0.50;99.90
59469;DHT22;45277;52.768;18.262;2023-03-07T08:53:42;0.60;99.90
59469;DHT22;45277;52.768;18.262;2023-03-07T08:55:14;0.60;99.90
59469;DHT22;45277;52.768;18.262;2023-03-07T08:56:46;0.60;99.90
59469;DHT22;45277;52.768;18.262;2023-03-07T08:58:18;0.60;99.90
59469;DHT22;45277;52.768;18.262;2023-03-07T08:59:49;0.60;99.90
59469;DHT22;45277;52.768;18.262;2023-03-07T09:01:21;0.60;99.90
59469;DHT22;45277;52.768;18.262;2023-03-07T09:02:53;0.70;99.90
59469;DHT22;45277;52.768;18.262;2023-03-07T09:04:24;0.80;99.90
59469;DHT22;45277;52.768;18.262;2023-03-07T09:05:55;0.70;99.90
59469;DHT22;45277;52.768;18.262;2023-03-07T09:07:27;0.80;99.90
59469;DHT22;45277;52.768;18.262;2023-03-07T09:08:58;0.80;99.90
59469;DHT22;45277;52.768;18.262;2023-03-07T09:10:30;0.80;99.90
59469;DHT22;45277;52.768;18.262;2023-03-07T09:12:02;0.90;99.90
59469;DHT22;45277;52.768;18.262;2023-03-07T09:13:33;1.00;99.90
59469;DHT22;45277;52.768;18.262;2023-03-07T09:15:05;1.10;99.90
59469;DHT22;45277;52.768;18.262;2023-03-07T09:16:37;1.20;99.90
59469;DHT22;45277;52.768;18.262;2023-03-07T09:18:10;1.30;99.90
59469;DHT22;45277;52.768;18.262;2023-03-07T09:19:42;1.40;99.90
59469;DHT22;45277;52.768;18.262;2023-03-07T09:21:14;1.40;99.90
59469;DHT22;45277;52.768;18.262;2023-03-07T09:22:46;1.60;99.90
59469;DHT22;45277;52.768;18.262;2023-03-07T09:24:17;1.60;99.90
59469;DHT22;45277;52.768;18.262;2023-03-07T09:25:49;1.70;99.90
59469;DHT22;45277;52.768;18.262;2023-03-07T09:27:21;1.60;99.90
59469;DHT22;45277;52.768;18.262;2023-03-07T09:28:52;1.60;99.90
59469;DHT22;45277;52.768;18.262;2023-03-07T09:30:24;1.70;99.90
59469;DHT22;45277;52.768;18.262;2023-03-07T09:31:58;1.70;99.90
59469;DHT22;45277;52.768;18.262;2023-03-07T09:33:32;1.70;99.90
59469;DHT22;45277;52.768;18.262;2023-03-07T09:35:04;1.60;99.90
59469;DHT22;45277;52.768;18.262;2023-03-07T09:36:36;1.70;99.90
59469;DHT22;45277;52.768;18.262;2023-03-07T09:38:08;1.70;99.90
59469;DHT22;45277;52.768;18.262;2023-03-07T09:39:41;1.70;99.90
59469;DHT22;45277;52.768;18.262;2023-03-07T09:43:30;1.80;99.90
59469;DHT22;45277;52.768;18.262;2023-03-07T09:53:02;2.20;99.90
59469;DHT22;45277;52.768;18.262;2023-03-07T09:54:41;2.20;99.90